createdAt,value
2022-07-26T00:00:33.388Z,6.80
2022-07-26T00:03:18.700Z,6.53
2022-07-26T00:06:04.270Z,5.90
2022-07-26T00:08:49.762Z,6.32
2022-07-26T00:11:35.354Z,6.57
2022-07-26T00:14:20.695Z,7.00
2022-07-26T00:17:06.161Z,6.43
2022-07-26T00:20:10.046Z,6.95
2022-07-26T00:23:33.016Z,5.78
2022-07-26T00:26:36.887Z,6.00
2022-07-26T00:29:22.197Z,6.28
2022-07-26T00:32:07.578Z,6.13
2022-07-26T00:34:53.111Z,5.80
2022-07-26T00:37:39.123Z,6.40
2022-07-26T00:40:24.909Z,8.15
2022-07-26T00:43:10.498Z,6.60
2022-07-26T00:45:56.081Z,5.85
2022-07-26T00:48:41.157Z,6.60
2022-07-26T00:51:26.586Z,5.70
2022-07-26T00:54:11.880Z,6.15
2022-07-26T00:56:57.309Z,6.60
2022-07-26T00:59:43.013Z,5.35
2022-07-26T01:02:28.299Z,5.70
2022-07-26T01:05:13.891Z,6.05
2022-07-26T01:07:59.406Z,5.40
2022-07-26T01:10:44.802Z,6.00
2022-07-26T01:13:34.944Z,5.82
2022-07-26T01:16:20.976Z,5.55
2022-07-26T01:19:06.379Z,5.97
2022-07-26T01:21:51.895Z,6.90
2022-07-26T01:24:37.326Z,6.47
2022-07-26T01:27:22.796Z,7.93
2022-07-26T01:30:11.074Z,6.25
2022-07-26T01:32:56.689Z,6.25
2022-07-26T01:35:42.107Z,6.28
2022-07-26T01:38:28.559Z,6.25
2022-07-26T01:41:14.059Z,7.28
2022-07-26T01:43:59.184Z,7.10
2022-07-26T01:46:44.661Z,6.93
2022-07-26T01:49:30.121Z,6.43
2022-07-26T01:52:15.572Z,7.03
2022-07-26T01:55:01.251Z,6.95
2022-07-26T01:57:46.760Z,7.72
2022-07-26T02:00:32.535Z,6.00
2022-07-26T02:03:17.781Z,5.78
2022-07-26T02:06:04.875Z,5.97
2022-07-26T02:08:50.627Z,6.75
2022-07-26T02:11:36.022Z,4.60
2022-07-26T02:14:25.694Z,5.75
2022-07-26T02:17:13.483Z,5.97
2022-07-26T02:19:59.089Z,5.65
2022-07-26T02:22:44.506Z,5.63
2022-07-26T02:25:30.048Z,6.63
2022-07-26T02:28:16.162Z,6.72
2022-07-26T02:31:01.528Z,4.68
2022-07-26T02:33:46.807Z,5.60
2022-07-26T02:36:32.093Z,4.47
2022-07-26T02:39:17.776Z,5.03
2022-07-26T02:42:03.796Z,5.15
2022-07-26T02:44:49.036Z,4.63
2022-07-26T02:47:34.540Z,5.13
2022-07-26T02:50:21.107Z,5.25
2022-07-26T02:53:06.173Z,4.25
2022-07-26T02:55:51.722Z,4.40
2022-07-26T02:58:37.732Z,4.25
2022-07-26T03:01:22.801Z,4.97
2022-07-26T03:04:08.285Z,5.80
2022-07-26T03:06:53.930Z,4.72
2022-07-26T03:09:39.277Z,4.32
2022-07-26T03:12:25.467Z,4.18
2022-07-26T03:15:11.643Z,4.60
2022-07-26T03:17:56.834Z,4.10
2022-07-26T03:20:42.196Z,5.18
2022-07-26T03:23:27.705Z,4.43
2022-07-26T03:26:13.147Z,4.60
2022-07-26T03:28:58.388Z,4.35
2022-07-26T03:31:43.897Z,5.28
2022-07-26T03:34:29.246Z,4.75
2022-07-26T03:37:14.660Z,5.63
2022-07-26T03:40:00.102Z,5.05
2022-07-26T03:42:46.749Z,4.32
2022-07-26T03:45:31.911Z,4.57
2022-07-26T03:48:17.269Z,3.95
2022-07-26T03:51:02.813Z,5.05
2022-07-26T03:53:48.295Z,4.13
2022-07-26T03:56:33.918Z,4.68
2022-07-26T03:59:19.013Z,5.43
2022-07-26T04:02:04.718Z,4.45
2022-07-26T04:04:49.949Z,4.55
2022-07-26T04:07:52.424Z,4.20
2022-07-26T04:10:38.629Z,4.38
2022-07-26T04:13:24.404Z,4.13
2022-07-26T04:16:09.815Z,5.65
2022-07-26T04:18:55.765Z,4.97
2022-07-26T04:21:41.736Z,5.22
2022-07-26T04:24:27.064Z,4.50
2022-07-26T04:27:12.653Z,4.65
2022-07-26T04:29:57.961Z,4.28
2022-07-26T04:32:45.884Z,4.85
2022-07-26T04:35:33.238Z,4.32
2022-07-26T04:38:18.745Z,5.43
2022-07-26T04:41:04.316Z,4.82
2022-07-26T04:43:49.677Z,4.25
2022-07-26T04:46:35.022Z,3.47
2022-07-26T04:49:20.406Z,4.32
2022-07-26T04:52:05.915Z,4.38
2022-07-26T04:54:51.322Z,4.47
2022-07-26T04:57:37.273Z,5.05
2022-07-26T05:00:25.045Z,4.90
2022-07-26T05:03:10.530Z,3.20
2022-07-26T05:05:56.023Z,4.45
2022-07-26T05:08:43.260Z,4.13
2022-07-26T05:11:28.495Z,3.53
2022-07-26T05:14:13.845Z,4.30
2022-07-26T05:16:59.848Z,5.30
2022-07-26T05:19:54.554Z,5.30
2022-07-26T05:22:40.773Z,4.82
2022-07-26T05:25:26.475Z,5.57
2022-07-26T05:28:11.759Z,4.18
2022-07-26T05:30:57.265Z,4.07
2022-07-26T05:33:42.454Z,4.38
2022-07-26T05:36:27.855Z,3.53
2022-07-26T05:39:16.029Z,3.13
2022-07-26T05:42:01.479Z,4.55
2022-07-26T05:44:46.918Z,3.10
2022-07-26T05:47:32.699Z,3.05
2022-07-26T05:50:18.440Z,2.75
2022-07-26T05:53:03.839Z,4.32
2022-07-26T05:55:49.442Z,4.47
2022-07-26T05:58:34.980Z,2.85
2022-07-26T06:01:20.231Z,4.32
2022-07-26T06:04:06.274Z,4.32
2022-07-26T06:06:52.863Z,3.92
2022-07-26T06:09:38.328Z,3.42
2022-07-26T06:12:23.771Z,2.40
2022-07-26T06:15:15.336Z,3.70
2022-07-26T06:18:01.384Z,4.18
2022-07-26T06:20:47.825Z,3.97
2022-07-26T06:23:34.676Z,3.17
2022-07-26T06:26:20.817Z,2.85
2022-07-26T06:29:06.071Z,3.25
2022-07-26T06:31:51.905Z,3.22
2022-07-26T06:34:37.204Z,2.72
2022-07-26T06:37:22.647Z,3.20
2022-07-26T06:40:09.731Z,3.60
2022-07-26T06:42:54.842Z,2.92
2022-07-26T06:45:40.513Z,3.65
2022-07-26T06:48:25.762Z,3.20
2022-07-26T06:51:11.351Z,2.65
2022-07-26T06:53:56.787Z,1.80
2022-07-26T06:56:46.073Z,2.35
2022-07-26T06:59:31.510Z,3.05
2022-07-26T07:02:16.881Z,2.95
2022-07-26T07:05:03.748Z,2.05
2022-07-26T07:07:49.365Z,2.33
2022-07-26T07:10:34.834Z,2.60
2022-07-26T07:13:20.461Z,2.90
2022-07-26T07:16:06.299Z,2.20
2022-07-26T07:18:51.527Z,2.72
2022-07-26T07:21:36.988Z,1.83
2022-07-26T07:24:23.389Z,1.80
2022-07-26T07:27:09.290Z,1.98
2022-07-26T07:29:56.141Z,1.83
2022-07-26T07:32:41.361Z,3.35
2022-07-26T07:35:31.865Z,1.75
2022-07-26T07:38:17.957Z,2.85
2022-07-26T07:41:04.299Z,2.45
2022-07-26T07:43:49.726Z,1.88
2022-07-26T07:46:35.038Z,3.47
2022-07-26T07:49:20.567Z,3.28
2022-07-26T07:52:06.527Z,3.38
2022-07-26T07:54:51.765Z,3.00
2022-07-26T07:57:37.403Z,2.33
2022-07-26T08:00:27.064Z,2.03
2022-07-26T08:03:12.839Z,3.20
2022-07-26T08:06:05.548Z,2.97
2022-07-26T08:08:51.077Z,3.42
2022-07-26T08:11:36.624Z,2.83
2022-07-26T08:14:27.037Z,3.42
2022-07-26T08:17:12.391Z,3.42
2022-07-26T08:20:00.094Z,3.00
2022-07-26T08:22:46.403Z,3.05
2022-07-26T08:25:31.921Z,1.25
2022-07-26T08:28:37.790Z,1.92
2022-07-26T08:31:23.327Z,2.10
2022-07-26T08:34:08.622Z,1.95
2022-07-26T08:37:15.569Z,2.55
2022-07-26T08:39:59.743Z,1.95
2022-07-26T08:42:56.684Z,3.35
2022-07-26T08:45:42.528Z,2.90
2022-07-26T08:48:29.038Z,1.90
2022-07-26T08:51:16.048Z,3.92
2022-07-26T08:54:05.664Z,3.80
2022-07-26T08:56:53.429Z,3.70
2022-07-26T08:59:39.090Z,2.75
2022-07-26T09:02:40.714Z,2.60
2022-07-26T09:05:35.223Z,2.25
2022-07-26T09:08:26.687Z,3.03
2022-07-26T09:11:24.403Z,2.03
2022-07-26T09:14:10.097Z,3.88
2022-07-26T09:16:59.879Z,3.80
2022-07-26T09:19:46.475Z,4.25
2022-07-26T09:22:31.703Z,2.53
2022-07-26T09:25:22.077Z,1.98
2022-07-26T09:28:29.503Z,4.47
2022-07-26T09:31:22.924Z,3.35
2022-07-26T09:34:08.840Z,3.17
2022-07-26T09:36:55.314Z,3.40
2022-07-26T09:39:58.802Z,3.17
2022-07-26T09:42:55.325Z,2.33
2022-07-26T09:45:40.862Z,2.92
2022-07-26T09:48:36.506Z,2.92
2022-07-26T09:51:38.488Z,2.65
2022-07-26T09:54:30.021Z,2.35
2022-07-26T09:57:20.668Z,1.65
2022-07-26T10:00:07.857Z,2.40
2022-07-26T10:02:54.323Z,2.88
2022-07-26T10:05:40.253Z,2.85
2022-07-26T10:08:25.737Z,2.50
2022-07-26T10:11:11.706Z,1.30
2022-07-26T10:13:57.965Z,1.80
2022-07-26T10:16:43.289Z,2.05
2022-07-26T10:19:45.846Z,1.50
2022-07-26T10:22:44.136Z,1.55
2022-07-26T10:25:32.202Z,1.60
2022-07-26T10:28:29.365Z,1.55
2022-07-26T10:31:21.226Z,1.50
2022-07-26T10:34:08.131Z,1.40
2022-07-26T10:37:05.502Z,2.70
2022-07-26T10:40:14.835Z,1.27
2022-07-26T10:43:39.711Z,1.90
2022-07-26T10:46:19.984Z,1.17
2022-07-26T10:49:09.104Z,1.15
2022-07-26T10:52:06.791Z,1.48
2022-07-26T10:55:01.025Z,1.40
2022-07-26T10:57:48.388Z,1.40
2022-07-26T11:00:34.667Z,1.58
2022-07-26T11:03:21.156Z,1.33
2022-07-26T11:06:12.797Z,1.50
2022-07-26T11:08:58.275Z,1.50
2022-07-26T11:11:46.880Z,1.00
2022-07-26T11:14:32.457Z,1.10
2022-07-26T11:17:25.224Z,1.30
2022-07-26T11:20:11.140Z,0.90
2022-07-26T11:22:56.423Z,1.00
2022-07-26T11:25:41.659Z,0.90
2022-07-26T11:28:27.139Z,1.20
2022-07-26T11:31:15.716Z,1.30
2022-07-26T11:34:03.012Z,1.05
2022-07-26T11:36:50.107Z,1.13
2022-07-26T11:39:36.307Z,1.40
2022-07-26T11:42:21.955Z,1.38
2022-07-26T11:45:10.459Z,1.27
2022-07-26T11:47:58.766Z,1.38
2022-07-26T11:50:46.845Z,1.27
2022-07-26T11:53:37.229Z,1.10
2022-07-26T11:56:23.322Z,1.65
2022-07-26T11:59:13.769Z,1.45
2022-07-26T12:02:00.270Z,1.30
2022-07-26T12:04:45.800Z,1.50
2022-07-26T12:07:31.692Z,1.10
2022-07-26T12:10:17.158Z,1.10
2022-07-26T12:13:14.312Z,1.15
2022-07-26T12:15:59.848Z,1.13
2022-07-26T12:18:51.656Z,2.03
2022-07-26T12:24:39.926Z,1.50
2022-07-26T12:27:34.562Z,1.10
2022-07-26T12:30:20.273Z,1.50
2022-07-26T12:33:05.821Z,1.40
2022-07-26T12:35:51.206Z,1.50
2022-07-26T12:38:40.712Z,1.40
2022-07-26T12:41:37.828Z,1.40
2022-07-26T12:44:23.680Z,1.20
2022-07-26T12:47:09.153Z,1.08
2022-07-26T12:49:54.923Z,1.13
2022-07-26T12:52:40.777Z,1.20
2022-07-26T12:55:26.347Z,1.45
2022-07-26T12:58:11.834Z,1.17
2022-07-26T13:00:57.473Z,1.27
2022-07-26T13:03:46.067Z,1.63
2022-07-26T13:06:32.890Z,1.52
2022-07-26T13:09:18.475Z,1.20
2022-07-26T13:12:05.638Z,1.10
2022-07-26T13:14:51.363Z,1.05
2022-07-26T13:17:36.882Z,1.20
2022-07-26T13:20:22.122Z,1.33
2022-07-26T13:23:13.726Z,1.15
2022-07-26T13:25:59.514Z,1.13
2022-07-26T13:28:44.768Z,1.38
2022-07-26T13:31:35.132Z,1.15
2022-07-26T13:34:22.965Z,1.63
2022-07-26T13:37:08.713Z,1.13
2022-07-26T13:39:54.232Z,1.27
2022-07-26T13:42:39.836Z,0.80
2022-07-26T13:45:25.112Z,1.10
2022-07-26T13:48:14.362Z,1.00
2022-07-26T13:50:59.659Z,1.20
2022-07-26T13:53:54.751Z,0.88
2022-07-26T13:56:42.696Z,1.33
2022-07-26T13:59:28.665Z,1.58
2022-07-26T14:02:13.951Z,1.00
2022-07-26T14:04:59.128Z,1.00
2022-07-26T14:07:44.487Z,1.08
2022-07-26T14:10:30.206Z,1.13
2022-07-26T14:13:15.412Z,1.02
2022-07-26T14:16:00.847Z,1.40
2022-07-26T14:18:46.454Z,1.13
2022-07-26T14:21:38.615Z,0.95
2022-07-26T14:24:34.027Z,1.02
2022-07-26T14:27:19.310Z,0.90
2022-07-26T14:30:05.717Z,1.73
2022-07-26T14:32:51.482Z,0.82
2022-07-26T14:35:36.775Z,0.95
2022-07-26T14:38:26.793Z,1.00
2022-07-26T14:41:15.640Z,1.27
2022-07-26T14:44:02.182Z,0.90
2022-07-26T14:46:47.542Z,1.02
2022-07-26T14:49:32.728Z,0.95
2022-07-26T14:52:17.961Z,0.90
2022-07-26T14:55:04.273Z,0.90
2022-07-26T14:57:49.510Z,0.82
2022-07-26T15:00:34.935Z,1.10
2022-07-26T15:03:20.608Z,1.10
2022-07-26T15:06:05.996Z,1.10
2022-07-26T15:08:51.448Z,1.48
2022-07-26T15:11:36.818Z,0.70
2022-07-26T15:14:22.215Z,0.80
2022-07-26T15:17:07.640Z,0.80
2022-07-26T15:19:52.930Z,0.77
2022-07-26T15:22:38.431Z,0.90
2022-07-26T15:25:24.287Z,0.95
2022-07-26T15:28:09.470Z,0.90
2022-07-26T15:30:55.039Z,1.00
2022-07-26T15:33:40.448Z,1.30
2022-07-26T15:36:25.811Z,1.38
2022-07-26T15:39:18.611Z,1.88
2022-07-26T15:42:07.849Z,1.90
2022-07-26T15:44:54.777Z,2.63
2022-07-26T15:48:03.334Z,3.53
2022-07-26T15:50:48.679Z,3.17
2022-07-26T15:53:35.574Z,3.20
2022-07-26T15:56:20.823Z,2.88
2022-07-26T15:59:09.185Z,2.75
2022-07-26T16:01:54.534Z,2.63
2022-07-26T16:04:39.800Z,2.70
2022-07-26T16:07:25.321Z,2.33
2022-07-26T16:10:12.534Z,2.10
2022-07-26T16:12:59.192Z,2.10
2022-07-26T16:15:45.131Z,2.20
2022-07-26T16:18:30.249Z,2.00
2022-07-26T16:21:15.671Z,1.27
2022-07-26T16:24:06.485Z,1.27
2022-07-26T16:26:53.202Z,1.55
2022-07-26T16:29:38.291Z,1.00
2022-07-26T16:32:23.587Z,1.48
2022-07-26T16:35:09.841Z,1.30
2022-07-26T16:37:55.139Z,1.63
2022-07-26T16:40:40.430Z,1.73
2022-07-26T16:43:25.734Z,2.10
2022-07-26T16:46:11.270Z,2.00
2022-07-26T16:48:56.678Z,1.42
2022-07-26T16:51:42.025Z,1.33
2022-07-26T16:54:27.402Z,1.77
2022-07-26T16:57:12.727Z,1.40
2022-07-26T16:59:58.215Z,1.45
2022-07-26T17:02:43.746Z,1.25
2022-07-26T17:05:29.158Z,1.60
2022-07-26T17:08:14.901Z,1.30
2022-07-26T17:11:00.243Z,2.28
2022-07-26T17:13:45.743Z,1.52
2022-07-26T17:16:31.659Z,1.40
2022-07-26T17:19:17.153Z,1.00
2022-07-26T17:22:02.449Z,1.45
2022-07-26T17:24:48.327Z,1.27
2022-07-26T17:27:35.369Z,1.35
2022-07-26T17:30:20.698Z,1.27
2022-07-26T17:33:06.257Z,1.30
2022-07-26T17:35:51.706Z,1.45
2022-07-26T17:38:37.032Z,1.40
2022-07-26T17:41:32.499Z,1.15
2022-07-26T17:44:19.065Z,1.17
2022-07-26T17:47:05.406Z,1.42
2022-07-26T17:53:15.587Z,1.40
2022-07-26T17:56:05.326Z,1.83
2022-07-26T17:58:50.652Z,1.42
2022-07-26T18:01:36.233Z,1.50
2022-07-26T18:04:21.481Z,1.50
2022-07-26T18:07:08.484Z,1.50
2022-07-26T18:09:54.006Z,1.30
2022-07-26T18:12:39.366Z,1.35
2022-07-26T18:15:24.587Z,1.83
2022-07-26T18:18:10.068Z,1.20
2022-07-26T18:20:55.468Z,1.33
2022-07-26T18:23:54.785Z,1.20
2022-07-26T18:26:46.095Z,1.30
2022-07-26T18:29:31.597Z,1.38
2022-07-26T18:32:16.859Z,1.38
2022-07-26T18:35:02.392Z,1.23
2022-07-26T18:37:47.727Z,1.48
2022-07-26T18:40:33.548Z,1.30
2022-07-26T18:43:18.883Z,1.33
2022-07-26T18:46:06.107Z,1.10
2022-07-26T18:48:52.608Z,1.20
2022-07-26T18:51:40.941Z,1.48
2022-07-26T18:54:26.020Z,1.40
2022-07-26T18:57:11.898Z,1.00
2022-07-26T18:59:56.963Z,1.38
2022-07-26T19:02:44.138Z,1.13
2022-07-26T19:05:34.484Z,1.42
2022-07-26T19:08:20.771Z,1.60
2022-07-26T19:11:06.168Z,1.02
2022-07-26T19:13:51.703Z,1.00
2022-07-26T19:16:37.057Z,1.08
2022-07-26T19:19:22.605Z,1.20
2022-07-26T19:22:07.901Z,1.20
2022-07-26T19:24:53.175Z,1.20
2022-07-26T19:27:38.756Z,1.30
2022-07-26T19:30:25.122Z,1.10
2022-07-26T19:33:12.035Z,1.20
2022-07-26T19:35:58.951Z,1.50
2022-07-26T19:38:44.248Z,1.25
2022-07-26T19:41:30.113Z,1.27
2022-07-26T19:44:16.279Z,1.73
2022-07-26T19:47:01.576Z,1.30
2022-07-26T19:49:47.007Z,1.30
2022-07-26T19:52:32.346Z,1.40
2022-07-26T19:55:17.883Z,1.67
2022-07-26T19:58:03.434Z,1.27
2022-07-26T20:00:48.820Z,1.38
2022-07-26T20:03:34.351Z,1.60
2022-07-26T20:06:19.875Z,1.38
2022-07-26T20:09:05.528Z,1.20
2022-07-26T20:11:51.176Z,1.52
2022-07-26T20:14:36.351Z,1.08
2022-07-26T20:17:23.180Z,1.33
2022-07-26T20:20:10.008Z,1.50
2022-07-26T20:22:55.277Z,1.20
2022-07-26T20:25:40.823Z,1.48
2022-07-26T20:28:26.436Z,1.40
2022-07-26T20:31:11.905Z,1.48
2022-07-26T20:33:57.269Z,1.35
2022-07-26T20:36:42.912Z,1.33
2022-07-26T20:39:29.066Z,1.30
2022-07-26T20:42:21.656Z,1.52
2022-07-26T20:45:11.527Z,1.65
2022-07-26T20:47:58.492Z,1.50
2022-07-26T20:50:43.938Z,1.60
2022-07-26T20:53:29.311Z,1.50
2022-07-26T20:56:14.678Z,2.10
2022-07-26T20:59:02.202Z,2.08
2022-07-26T21:01:47.629Z,1.63
2022-07-26T21:04:33.214Z,1.73
2022-07-26T21:07:18.709Z,1.83
2022-07-26T21:10:06.420Z,2.38
2022-07-26T21:12:52.979Z,1.50
2022-07-26T21:15:38.350Z,1.90
2022-07-26T21:18:25.820Z,1.38
2022-07-26T21:21:11.071Z,1.70
2022-07-26T21:23:56.555Z,1.60
2022-07-26T21:26:42.129Z,2.10
2022-07-26T21:29:32.672Z,2.13
2022-07-26T21:32:29.602Z,1.73
2022-07-26T21:35:16.710Z,1.80
2022-07-26T21:38:02.059Z,1.85
2022-07-26T21:40:47.568Z,2.00
2022-07-26T21:43:33.019Z,2.20
2022-07-26T21:46:18.589Z,1.58
2022-07-26T21:49:05.026Z,2.63
2022-07-26T21:51:50.632Z,2.15
2022-07-26T21:54:36.091Z,1.83
2022-07-26T21:57:21.674Z,2.03
2022-07-26T22:00:07.635Z,1.70
2022-07-26T22:02:52.828Z,1.67
2022-07-26T22:05:38.158Z,1.70
2022-07-26T22:08:23.571Z,2.03
2022-07-26T22:11:09.098Z,1.92
2022-07-26T22:13:55.046Z,1.95
2022-07-26T22:16:40.231Z,2.17
2022-07-26T22:19:25.512Z,2.60
2022-07-26T22:22:10.963Z,2.08
2022-07-26T22:24:56.372Z,1.90
2022-07-26T22:27:41.665Z,2.00
2022-07-26T22:30:29.791Z,2.08
2022-07-26T22:33:15.228Z,2.05
2022-07-26T22:36:00.286Z,1.90
2022-07-26T22:38:46.382Z,1.80
2022-07-26T22:41:32.620Z,1.80
2022-07-26T22:44:19.347Z,2.03
2022-07-26T22:47:04.782Z,2.40
2022-07-26T22:49:50.373Z,2.08
2022-07-26T22:52:36.243Z,1.90
2022-07-26T22:55:21.557Z,2.05
2022-07-26T22:58:07.016Z,2.00
2022-07-26T23:00:52.354Z,1.85
2022-07-26T23:03:38.276Z,2.00
2022-07-26T23:06:32.030Z,2.20
2022-07-26T23:09:17.739Z,1.83
2022-07-26T23:12:03.256Z,2.00
2022-07-26T23:14:48.371Z,2.30
2022-07-26T23:17:34.042Z,1.92
2022-07-26T23:20:21.330Z,2.17
2022-07-26T23:23:06.632Z,1.77
2022-07-26T23:25:51.980Z,1.83
2022-07-26T23:28:38.654Z,1.73
2022-07-26T23:31:24.840Z,2.00
2022-07-26T23:34:10.274Z,1.77
2022-07-26T23:36:55.758Z,1.70
2022-07-26T23:39:41.252Z,1.90
2022-07-26T23:42:26.570Z,1.80
2022-07-26T23:45:12.078Z,1.90
2022-07-26T23:47:57.414Z,2.03
2022-07-26T23:50:42.928Z,1.88
2022-07-26T23:53:28.238Z,2.10
2022-07-26T23:56:13.636Z,1.63
2022-07-26T23:58:59.041Z,1.80
